Fukuma, Japan

5:10 PM JST on March 27, 2017 (GMT +0900)
古賀市 | | Change Station

Elev 0 ft 33.74 °N, 130.47 °E | Updated 1 minute ago

Mostly Cloudy
Mostly Cloudy
60.4 °F
Feels Like 60.4 °F
N
1.9
Wind Variable Wind from WSW
Gusts 5.0 mph

Today
High -- | Low -- °F
--% Chance of Precip.
Yesterday
High -- | Low -- °F
Precip. -- in
Pressure 30.06 in
Visibility 6.2 miles
Clouds Few 3000 ft
Scattered Clouds 4000 ft
Mostly Cloudy 5000 ft
Dew Point 41 °F
Humidity 48%
Rainfall 0.17 in
Snow Depth Not available.
6:12 AM 6:34 PM
Waning Crescent, 1% visible
METAR RJFF 270800Z 29010KT 9999 FEW030 SCT040 BKN050 11/02 Q1018 RMK 1CU030 3CU040 5SC050 A3008
Pressure 30.06 in
Visibility 6.2 miles
Clouds Few 3000 ft
Scattered Clouds 4000 ft
Mostly Cloudy 5000 ft
Dew Point 41 °F
Humidity 48%
Rainfall 0.17 in
Snow Depth Not available.
6:12 AM 6:34 PM
Waning Crescent, 1% visible
METAR RJFF 270800Z 29010KT 9999 FEW030 SCT040 BKN050 11/02 Q1018 RMK 1CU030 3CU040 5SC050 A3008

Get Severe Weather Alerts

Thanks for signing up!

Be on the lookout for a verification email in your inbox.

You'll start receiving the daily forecast at 8 AM.

×

10-Day Weather Forecast

No radar image for this location.
×

Almanac

Astronomy

Mar. 27, 2017 Rise Set
Actual Time
Civil Twilight
Nautical Twilight
Astronomical Twilight
Moon
Length of Visible Light
Length of Day
Tomorrow will be .
, % of the Moon is Illuminated

Today's Extremes

Country Highs Country Lows

Community

WunderPhotos

Upload Photos

1,962,540 photos uploaded!

WunderBlog® & News

Nearby

Air Quality

  Air Quality AQ Index Pollutant
Not available.

Snow Depth

Station Depth Elevation

Earthquake Activity

City Distance Mag. Time & Date
Minimum magnitude displayed is 2.5.

Earthquake Activity

City Distance Mag. Time & Date
Minimum magnitude displayed is 2.5.

Coastal Water Temperatures

Place Temperature

Stations

Nearby Weather Stations

Station Location Temp. Windchill Dew Point Humidity Wind Precip. Elev Updated Type